sensor_id;sensor_type;location;lat;lon;timestamp;temperature;humidity
25953;DHT22;13750;50.804;8.764;2023-08-08T00:01:01;13.20;77.50
25953;DHT22;13750;50.804;8.764;2023-08-08T00:03:27;13.30;77.80
25953;DHT22;13750;50.804;8.764;2023-08-08T00:05:55;13.30;77.80
25953;DHT22;13750;50.804;8.764;2023-08-08T00:08:23;13.30;77.80
25953;DHT22;13750;50.804;8.764;2023-08-08T00:10:49;13.20;77.90
25953;DHT22;13750;50.804;8.764;2023-08-08T00:13:14;13.30;78.10
25953;DHT22;13750;50.804;8.764;2023-08-08T00:15:40;13.30;78.10
25953;DHT22;13750;50.804;8.764;2023-08-08T00:18:06;13.30;78.20
25953;DHT22;13750;50.804;8.764;2023-08-08T00:20:31;13.30;78.20
25953;DHT22;13750;50.804;8.764;2023-08-08T00:22:57;13.30;78.30
25953;DHT22;13750;50.804;8.764;2023-08-08T00:25:22;13.30;78.30
25953;DHT22;13750;50.804;8.764;2023-08-08T00:27:51;13.30;78.40
25953;DHT22;13750;50.804;8.764;2023-08-08T00:30:16;13.40;78.40
25953;DHT22;13750;50.804;8.764;2023-08-08T00:32:42;13.40;78.50
25953;DHT22;13750;50.804;8.764;2023-08-08T00:35:08;13.40;78.50
25953;DHT22;13750;50.804;8.764;2023-08-08T00:37:34;13.40;78.30
25953;DHT22;13750;50.804;8.764;2023-08-08T00:39:59;13.40;78.30
25953;DHT22;13750;50.804;8.764;2023-08-08T00:42:25;13.40;78.30
25953;DHT22;13750;50.804;8.764;2023-08-08T00:44:50;13.30;78.40
25953;DHT22;13750;50.804;8.764;2023-08-08T00:47:18;13.30;78.50
25953;DHT22;13750;50.804;8.764;2023-08-08T00:49:45;13.40;78.50
25953;DHT22;13750;50.804;8.764;2023-08-08T00:52:13;13.40;78.50
25953;DHT22;13750;50.804;8.764;2023-08-08T00:54:40;13.40;78.40
25953;DHT22;13750;50.804;8.764;2023-08-08T00:57:08;13.40;78.40
25953;DHT22;13750;50.804;8.764;2023-08-08T00:59:33;13.40;78.30
25953;DHT22;13750;50.804;8.764;2023-08-08T01:01:59;13.30;78.30
25953;DHT22;13750;50.804;8.764;2023-08-08T01:04:27;13.30;78.50
25953;DHT22;13750;50.804;8.764;2023-08-08T01:09:53;13.30;78.90
25953;DHT22;13750;50.804;8.764;2023-08-08T01:12:22;13.30;78.90
25953;DHT22;13750;50.804;8.764;2023-08-08T01:14:49;13.40;79.00
25953;DHT22;13750;50.804;8.764;2023-08-08T01:17:18;13.40;79.00
25953;DHT22;13750;50.804;8.764;2023-08-08T01:19:44;13.40;79.00
25953;DHT22;13750;50.804;8.764;2023-08-08T01:22:20;13.30;79.10
25953;DHT22;13750;50.804;8.764;2023-08-08T01:24:47;13.30;79.20
25953;DHT22;13750;50.804;8.764;2023-08-08T01:27:13;13.30;79.10
25953;DHT22;13750;50.804;8.764;2023-08-08T01:29:41;13.30;79.20
25953;DHT22;13750;50.804;8.764;2023-08-08T01:32:06;13.30;79.40
25953;DHT22;13750;50.804;8.764;2023-08-08T01:34:34;13.30;79.50
25953;DHT22;13750;50.804;8.764;2023-08-08T01:37:11;13.40;79.60
25953;DHT22;13750;50.804;8.764;2023-08-08T01:39:40;13.40;79.50
25953;DHT22;13750;50.804;8.764;2023-08-08T01:42:06;13.40;79.50
25953;DHT22;13750;50.804;8.764;2023-08-08T01:44:32;13.40;79.50
25953;DHT22;13750;50.804;8.764;2023-08-08T01:47:00;13.50;79.40
25953;DHT22;13750;50.804;8.764;2023-08-08T01:49:26;13.40;79.30
25953;DHT22;13750;50.804;8.764;2023-08-08T01:51:51;13.50;79.20
25953;DHT22;13750;50.804;8.764;2023-08-08T01:54:18;13.50;79.20
25953;DHT22;13750;50.804;8.764;2023-08-08T01:56:43;13.50;79.30
25953;DHT22;13750;50.804;8.764;2023-08-08T01:59:09;13.50;79.30
25953;DHT22;13750;50.804;8.764;2023-08-08T02:01:35;13.50;79.30
25953;DHT22;13750;50.804;8.764;2023-08-08T02:04:00;13.60;79.10
25953;DHT22;13750;50.804;8.764;2023-08-08T02:06:26;13.60;79.00
25953;DHT22;13750;50.804;8.764;2023-08-08T02:08:51;13.60;78.90
25953;DHT22;13750;50.804;8.764;2023-08-08T02:11:17;13.60;78.90
25953;DHT22;13750;50.804;8.764;2023-08-08T02:13:43;13.60;78.90
25953;DHT22;13750;50.804;8.764;2023-08-08T02:16:10;13.60;78.60
25953;DHT22;13750;50.804;8.764;2023-08-08T02:18:38;13.60;78.80
25953;DHT22;13750;50.804;8.764;2023-08-08T02:21:07;13.50;79.00
25953;DHT22;13750;50.804;8.764;2023-08-08T02:23:33;13.50;79.00
25953;DHT22;13750;50.804;8.764;2023-08-08T02:25:59;13.60;79.00
25953;DHT22;13750;50.804;8.764;2023-08-08T02:28:26;13.60;78.80
25953;DHT22;13750;50.804;8.764;2023-08-08T02:30:53;13.60;78.80
25953;DHT22;13750;50.804;8.764;2023-08-08T02:33:19;13.60;78.80
25953;DHT22;13750;50.804;8.764;2023-08-08T02:35:47;13.50;78.60
25953;DHT22;13750;50.804;8.764;2023-08-08T02:38:13;13.60;78.70
25953;DHT22;13750;50.804;8.764;2023-08-08T02:40:38;13.50;78.70
25953;DHT22;13750;50.804;8.764;2023-08-08T02:43:06;13.40;78.70
25953;DHT22;13750;50.804;8.764;2023-08-08T02:45:34;13.50;78.70
25953;DHT22;13750;50.804;8.764;2023-08-08T02:48:00;13.50;78.70
25953;DHT22;13750;50.804;8.764;2023-08-08T02:50:27;13.50;78.70
25953;DHT22;13750;50.804;8.764;2023-08-08T02:52:53;13.50;78.60
25953;DHT22;13750;50.804;8.764;2023-08-08T02:55:18;13.40;78.50
25953;DHT22;13750;50.804;8.764;2023-08-08T02:57:44;13.30;78.70
25953;DHT22;13750;50.804;8.764;2023-08-08T03:00:10;13.30;78.80
25953;DHT22;13750;50.804;8.764;2023-08-08T03:02:38;13.20;79.00
25953;DHT22;13750;50.804;8.764;2023-08-08T03:05:04;13.20;79.10
25953;DHT22;13750;50.804;8.764;2023-08-08T03:07:32;13.20;79.30
25953;DHT22;13750;50.804;8.764;2023-08-08T03:09:59;13.20;79.40
25953;DHT22;13750;50.804;8.764;2023-08-08T03:12:25;13.20;79.40
25953;DHT22;13750;50.804;8.764;2023-08-08T03:14:51;13.20;79.40
25953;DHT22;13750;50.804;8.764;2023-08-08T03:17:16;13.20;79.30
25953;DHT22;13750;50.804;8.764;2023-08-08T03:19:42;13.20;79.20
25953;DHT22;13750;50.804;8.764;2023-08-08T03:22:07;13.20;79.20
25953;DHT22;13750;50.804;8.764;2023-08-08T03:24:33;13.20;79.30
25953;DHT22;13750;50.804;8.764;2023-08-08T03:26:58;13.20;79.30
25953;DHT22;13750;50.804;8.764;2023-08-08T03:29:24;13.20;79.20
25953;DHT22;13750;50.804;8.764;2023-08-08T03:31:50;13.20;79.10
25953;DHT22;13750;50.804;8.764;2023-08-08T03:34:15;13.20;79.00
25953;DHT22;13750;50.804;8.764;2023-08-08T03:36:42;13.10;79.00
25953;DHT22;13750;50.804;8.764;2023-08-08T03:39:07;13.10;79.00
25953;DHT22;13750;50.804;8.764;2023-08-08T03:41:33;13.10;78.90
25953;DHT22;13750;50.804;8.764;2023-08-08T03:44:01;13.10;79.00
25953;DHT22;13750;50.804;8.764;2023-08-08T03:46:28;13.10;79.20
25953;DHT22;13750;50.804;8.764;2023-08-08T03:48:54;13.10;79.30
25953;DHT22;13750;50.804;8.764;2023-08-08T03:51:19;13.10;79.40
25953;DHT22;13750;50.804;8.764;2023-08-08T03:53:45;13.10;79.40
25953;DHT22;13750;50.804;8.764;2023-08-08T03:56:10;13.10;79.20
25953;DHT22;13750;50.804;8.764;2023-08-08T03:58:37;13.10;79.10
25953;DHT22;13750;50.804;8.764;2023-08-08T04:01:03;13.00;79.30
25953;DHT22;13750;50.804;8.764;2023-08-08T04:03:29;13.00;79.30
25953;DHT22;13750;50.804;8.764;2023-08-08T04:05:57;13.10;79.20
25953;DHT22;13750;50.804;8.764;2023-08-08T04:08:22;13.10;79.20
25953;DHT22;13750;50.804;8.764;2023-08-08T04:10:48;13.10;79.10
25953;DHT22;13750;50.804;8.764;2023-08-08T04:13:13;13.00;79.00
25953;DHT22;13750;50.804;8.764;2023-08-08T04:15:39;13.00;79.20
25953;DHT22;13750;50.804;8.764;2023-08-08T04:18:05;12.90;79.20
25953;DHT22;13750;50.804;8.764;2023-08-08T04:20:32;12.90;79.40
25953;DHT22;13750;50.804;8.764;2023-08-08T04:22:58;12.90;79.50
25953;DHT22;13750;50.804;8.764;2023-08-08T04:25:24;12.90;79.50
25953;DHT22;13750;50.804;8.764;2023-08-08T04:27:50;12.80;79.50
25953;DHT22;13750;50.804;8.764;2023-08-08T04:30:15;12.80;79.40
25953;DHT22;13750;50.804;8.764;2023-08-08T04:32:41;12.70;79.60
25953;DHT22;13750;50.804;8.764;2023-08-08T04:35:06;12.70;79.90
25953;DHT22;13750;50.804;8.764;2023-08-08T04:37:32;12.70;80.10
25953;DHT22;13750;50.804;8.764;2023-08-08T04:39:58;12.70;80.20
25953;DHT22;13750;50.804;8.764;2023-08-08T04:42:23;12.70;80.20
25953;DHT22;13750;50.804;8.764;2023-08-08T04:44:51;12.70;80.30
25953;DHT22;13750;50.804;8.764;2023-08-08T04:47:19;12.70;80.40
25953;DHT22;13750;50.804;8.764;2023-08-08T04:49:50;12.80;80.30
25953;DHT22;13750;50.804;8.764;2023-08-08T04:52:15;12.80;80.30
25953;DHT22;13750;50.804;8.764;2023-08-08T04:54:41;12.80;80.00
25953;DHT22;13750;50.804;8.764;2023-08-08T04:57:07;12.80;80.00
25953;DHT22;13750;50.804;8.764;2023-08-08T04:59:32;12.90;80.00
25953;DHT22;13750;50.804;8.764;2023-08-08T05:02:00;12.90;79.90
25953;DHT22;13750;50.804;8.764;2023-08-08T05:04:25;12.90;79.70
25953;DHT22;13750;50.804;8.764;2023-08-08T05:06:51;12.90;79.70
25953;DHT22;13750;50.804;8.764;2023-08-08T05:09:17;12.80;79.80
25953;DHT22;13750;50.804;8.764;2023-08-08T05:11:42;12.80;79.90
25953;DHT22;13750;50.804;8.764;2023-08-08T05:14:08;12.90;80.00
25953;DHT22;13750;50.804;8.764;2023-08-08T05:16:33;12.90;80.10
25953;DHT22;13750;50.804;8.764;2023-08-08T05:18:59;12.90;80.20
25953;DHT22;13750;50.804;8.764;2023-08-08T05:21:24;12.90;80.20
25953;DHT22;13750;50.804;8.764;2023-08-08T05:23:50;13.00;80.20
25953;DHT22;13750;50.804;8.764;2023-08-08T05:26:15;13.00;80.30
25953;DHT22;13750;50.804;8.764;2023-08-08T05:28:41;13.00;80.40
25953;DHT22;13750;50.804;8.764;2023-08-08T05:31:07;13.10;80.30
25953;DHT22;13750;50.804;8.764;2023-08-08T05:33:32;13.10;80.30
25953;DHT22;13750;50.804;8.764;2023-08-08T05:35:58;13.20;80.30
25953;DHT22;13750;50.804;8.764;2023-08-08T05:38:24;13.20;80.30
25953;DHT22;13750;50.804;8.764;2023-08-08T05:40:49;13.30;80.20
25953;DHT22;13750;50.804;8.764;2023-08-08T05:43:15;13.30;80.10
25953;DHT22;13750;50.804;8.764;2023-08-08T05:45:44;13.40;80.00
25953;DHT22;13750;50.804;8.764;2023-08-08T05:48:10;13.40;80.00
25953;DHT22;13750;50.804;8.764;2023-08-08T05:50:38;13.40;79.90
25953;DHT22;13750;50.804;8.764;2023-08-08T05:53:04;13.50;79.80
25953;DHT22;13750;50.804;8.764;2023-08-08T05:55:30;13.60;79.70
25953;DHT22;13750;50.804;8.764;2023-08-08T05:57:56;13.60;79.70
25953;DHT22;13750;50.804;8.764;2023-08-08T06:00:21;13.60;79.50
25953;DHT22;13750;50.804;8.764;2023-08-08T06:02:47;13.70;79.30
25953;DHT22;13750;50.804;8.764;2023-08-08T06:05:13;13.70;79.20
25953;DHT22;13750;50.804;8.764;2023-08-08T06:07:39;13.70;79.10
25953;DHT22;13750;50.804;8.764;2023-08-08T06:10:05;13.70;79.10
25953;DHT22;13750;50.804;8.764;2023-08-08T06:12:31;13.80;79.00
25953;DHT22;13750;50.804;8.764;2023-08-08T06:14:56;13.90;79.00
25953;DHT22;13750;50.804;8.764;2023-08-08T06:17:22;13.90;79.10
25953;DHT22;13750;50.804;8.764;2023-08-08T06:19:49;13.90;79.10
25953;DHT22;13750;50.804;8.764;2023-08-08T06:22:15;13.90;79.00
25953;DHT22;13750;50.804;8.764;2023-08-08T06:24:41;14.00;79.00
25953;DHT22;13750;50.804;8.764;2023-08-08T06:27:06;14.00;79.00
25953;DHT22;13750;50.804;8.764;2023-08-08T06:29:32;14.00;78.90
25953;DHT22;13750;50.804;8.764;2023-08-08T06:31:58;14.00;78.80
25953;DHT22;13750;50.804;8.764;2023-08-08T06:34:23;14.10;78.70
25953;DHT22;13750;50.804;8.764;2023-08-08T06:36:49;14.10;78.60
25953;DHT22;13750;50.804;8.764;2023-08-08T06:39:14;14.20;78.40
25953;DHT22;13750;50.804;8.764;2023-08-08T06:41:40;14.20;78.00
25953;DHT22;13750;50.804;8.764;2023-08-08T06:44:07;14.20;77.20
25953;DHT22;13750;50.804;8.764;2023-08-08T06:46:33;14.30;76.80
25953;DHT22;13750;50.804;8.764;2023-08-08T06:48:58;14.40;76.50
25953;DHT22;13750;50.804;8.764;2023-08-08T06:51:25;14.40;76.10
25953;DHT22;13750;50.804;8.764;2023-08-08T06:53:51;14.50;75.60
25953;DHT22;13750;50.804;8.764;2023-08-08T06:56:17;14.50;75.40
25953;DHT22;13750;50.804;8.764;2023-08-08T06:58:43;14.60;75.10
25953;DHT22;13750;50.804;8.764;2023-08-08T07:01:09;14.60;74.80
25953;DHT22;13750;50.804;8.764;2023-08-08T07:03:35;14.70;74.60
25953;DHT22;13750;50.804;8.764;2023-08-08T07:06:00;14.70;74.40
25953;DHT22;13750;50.804;8.764;2023-08-08T07:08:26;14.80;74.20
25953;DHT22;13750;50.804;8.764;2023-08-08T07:10:52;14.80;74.00
25953;DHT22;13750;50.804;8.764;2023-08-08T07:13:17;14.80;74.10
25953;DHT22;13750;50.804;8.764;2023-08-08T07:15:43;14.90;74.00
25953;DHT22;13750;50.804;8.764;2023-08-08T07:18:08;15.00;73.90
25953;DHT22;13750;50.804;8.764;2023-08-08T07:20:34;15.00;73.80
25953;DHT22;13750;50.804;8.764;2023-08-08T07:22:59;15.10;73.70
25953;DHT22;13750;50.804;8.764;2023-08-08T07:25:26;15.10;73.30
25953;DHT22;13750;50.804;8.764;2023-08-08T07:27:52;15.10;73.10
25953;DHT22;13750;50.804;8.764;2023-08-08T07:30:18;15.10;73.00
25953;DHT22;13750;50.804;8.764;2023-08-08T07:32:43;15.20;72.80
25953;DHT22;13750;50.804;8.764;2023-08-08T07:35:09;15.20;72.60
25953;DHT22;13750;50.804;8.764;2023-08-08T07:37:35;15.30;72.60
25953;DHT22;13750;50.804;8.764;2023-08-08T07:40:01;15.30;72.30
25953;DHT22;13750;50.804;8.764;2023-08-08T07:42:27;15.30;72.20
25953;DHT22;13750;50.804;8.764;2023-08-08T07:44:52;15.40;72.20
25953;DHT22;13750;50.804;8.764;2023-08-08T07:47:18;15.40;72.10
25953;DHT22;13750;50.804;8.764;2023-08-08T07:49:43;15.50;72.10
25953;DHT22;13750;50.804;8.764;2023-08-08T07:52:09;15.50;72.00
25953;DHT22;13750;50.804;8.764;2023-08-08T07:54:35;15.60;71.70
25953;DHT22;13750;50.804;8.764;2023-08-08T07:57:00;15.60;71.70
25953;DHT22;13750;50.804;8.764;2023-08-08T07:59:26;15.60;71.70
25953;DHT22;13750;50.804;8.764;2023-08-08T08:01:52;15.70;71.40
25953;DHT22;13750;50.804;8.764;2023-08-08T08:04:17;15.80;71.50
25953;DHT22;13750;50.804;8.764;2023-08-08T08:06:43;15.80;71.50
25953;DHT22;13750;50.804;8.764;2023-08-08T08:09:08;15.80;71.60
25953;DHT22;13750;50.804;8.764;2023-08-08T08:11:34;15.90;71.70
25953;DHT22;13750;50.804;8.764;2023-08-08T08:13:59;15.90;71.90
25953;DHT22;13750;50.804;8.764;2023-08-08T08:16:25;15.90;71.80
25953;DHT22;13750;50.804;8.764;2023-08-08T08:18:51;15.90;71.50
25953;DHT22;13750;50.804;8.764;2023-08-08T08:21:16;15.90;71.40
25953;DHT22;13750;50.804;8.764;2023-08-08T08:23:43;15.90;71.60
25953;DHT22;13750;50.804;8.764;2023-08-08T08:26:09;16.00;71.70
25953;DHT22;13750;50.804;8.764;2023-08-08T08:28:35;16.00;71.70
25953;DHT22;13750;50.804;8.764;2023-08-08T08:31:04;16.00;71.50
25953;DHT22;13750;50.804;8.764;2023-08-08T08:33:30;16.00;71.40
25953;DHT22;13750;50.804;8.764;2023-08-08T08:35:56;16.10;71.30
25953;DHT22;13750;50.804;8.764;2023-08-08T08:38:21;16.10;71.00
25953;DHT22;13750;50.804;8.764;2023-08-08T08:40:47;16.10;71.20
25953;DHT22;13750;50.804;8.764;2023-08-08T08:43:15;16.20;71.40
25953;DHT22;13750;50.804;8.764;2023-08-08T08:45:43;16.20;71.30
25953;DHT22;13750;50.804;8.764;2023-08-08T08:48:15;16.30;71.10
25953;DHT22;13750;50.804;8.764;2023-08-08T08:50:41;16.30;70.70
25953;DHT22;13750;50.804;8.764;2023-08-08T08:53:10;16.30;70.50
25953;DHT22;13750;50.804;8.764;2023-08-08T08:55:35;16.30;70.40
25953;DHT22;13750;50.804;8.764;2023-08-08T08:58:02;16.30;70.40
25953;DHT22;13750;50.804;8.764;2023-08-08T09:00:30;16.30;70.60
25953;DHT22;13750;50.804;8.764;2023-08-08T09:02:55;16.30;70.80
25953;DHT22;13750;50.804;8.764;2023-08-08T09:05:22;16.30;71.00
25953;DHT22;13750;50.804;8.764;2023-08-08T09:07:48;16.30;70.70
25953;DHT22;13750;50.804;8.764;2023-08-08T09:10:15;16.40;70.90
25953;DHT22;13750;50.804;8.764;2023-08-08T09:12:41;16.40;71.00
25953;DHT22;13750;50.804;8.764;2023-08-08T09:15:07;16.50;70.40
25953;DHT22;13750;50.804;8.764;2023-08-08T09:17:33;16.50;70.60
25953;DHT22;13750;50.804;8.764;2023-08-08T09:19:58;16.60;70.60
25953;DHT22;13750;50.804;8.764;2023-08-08T09:22:24;16.60;70.40
25953;DHT22;13750;50.804;8.764;2023-08-08T09:24:52;16.60;69.90
25953;DHT22;13750;50.804;8.764;2023-08-08T09:27:18;16.70;69.30
25953;DHT22;13750;50.804;8.764;2023-08-08T09:29:43;16.70;69.20
25953;DHT22;13750;50.804;8.764;2023-08-08T09:32:09;16.80;69.10
25953;DHT22;13750;50.804;8.764;2023-08-08T09:34:35;16.90;68.50
25953;DHT22;13750;50.804;8.764;2023-08-08T09:37:01;17.00;68.30
25953;DHT22;13750;50.804;8.764;2023-08-08T09:39:28;17.10;68.00
25953;DHT22;13750;50.804;8.764;2023-08-08T09:41:56;17.10;68.00
25953;DHT22;13750;50.804;8.764;2023-08-08T09:44:26;17.20;67.80
25953;DHT22;13750;50.804;8.764;2023-08-08T09:46:53;17.20;67.40
25953;DHT22;13750;50.804;8.764;2023-08-08T09:49:19;17.30;67.00
25953;DHT22;13750;50.804;8.764;2023-08-08T09:51:47;17.30;65.10
25953;DHT22;13750;50.804;8.764;2023-08-08T09:54:14;17.30;64.50
25953;DHT22;13750;50.804;8.764;2023-08-08T09:56:40;17.30;64.20
25953;DHT22;13750;50.804;8.764;2023-08-08T09:59:06;17.30;63.60
25953;DHT22;13750;50.804;8.764;2023-08-08T10:01:32;17.50;63.30
25953;DHT22;13750;50.804;8.764;2023-08-08T10:03:59;17.50;63.70
25953;DHT22;13750;50.804;8.764;2023-08-08T10:06:26;17.60;64.00
25953;DHT22;13750;50.804;8.764;2023-08-08T10:08:53;17.60;61.70
25953;DHT22;13750;50.804;8.764;2023-08-08T10:11:19;17.70;61.30
25953;DHT22;13750;50.804;8.764;2023-08-08T10:13:49;17.80;60.10
25953;DHT22;13750;50.804;8.764;2023-08-08T10:16:16;17.80;60.50
25953;DHT22;13750;50.804;8.764;2023-08-08T10:18:42;17.80;60.80
25953;DHT22;13750;50.804;8.764;2023-08-08T10:21:07;17.80;60.60
25953;DHT22;13750;50.804;8.764;2023-08-08T10:23:39;17.80;60.40
25953;DHT22;13750;50.804;8.764;2023-08-08T10:26:16;17.80;60.10
25953;DHT22;13750;50.804;8.764;2023-08-08T10:28:53;17.90;60.00
25953;DHT22;13750;50.804;8.764;2023-08-08T10:31:20;17.90;60.20
25953;DHT22;13750;50.804;8.764;2023-08-08T10:33:46;17.90;59.80
25953;DHT22;13750;50.804;8.764;2023-08-08T10:36:11;17.90;59.70
25953;DHT22;13750;50.804;8.764;2023-08-08T10:38:46;18.00;59.50
25953;DHT22;13750;50.804;8.764;2023-08-08T10:41:17;18.00;59.50
25953;DHT22;13750;50.804;8.764;2023-08-08T10:43:55;17.90;59.70
25953;DHT22;13750;50.804;8.764;2023-08-08T10:46:32;17.90;59.90
25953;DHT22;13750;50.804;8.764;2023-08-08T10:49:04;17.80;60.00
25953;DHT22;13750;50.804;8.764;2023-08-08T10:51:42;17.80;60.20
25953;DHT22;13750;50.804;8.764;2023-08-08T10:54:22;17.70;60.10
25953;DHT22;13750;50.804;8.764;2023-08-08T10:56:55;17.70;60.20
25953;DHT22;13750;50.804;8.764;2023-08-08T10:59:26;17.60;60.40
25953;DHT22;13750;50.804;8.764;2023-08-08T11:01:53;17.60;60.60
25953;DHT22;13750;50.804;8.764;2023-08-08T11:04:21;17.60;60.50
25953;DHT22;13750;50.804;8.764;2023-08-08T11:06:47;17.60;60.50
25953;DHT22;13750;50.804;8.764;2023-08-08T11:09:16;17.50;60.40
25953;DHT22;13750;50.804;8.764;2023-08-08T11:11:43;17.50;60.50
25953;DHT22;13750;50.804;8.764;2023-08-08T11:14:17;17.40;60.60
25953;DHT22;13750;50.804;8.764;2023-08-08T11:16:44;17.40;60.70
25953;DHT22;13750;50.804;8.764;2023-08-08T11:19:11;17.40;60.50
25953;DHT22;13750;50.804;8.764;2023-08-08T11:21:40;17.40;60.50
25953;DHT22;13750;50.804;8.764;2023-08-08T11:24:07;17.50;60.60
25953;DHT22;13750;50.804;8.764;2023-08-08T11:26:34;17.40;60.50
25953;DHT22;13750;50.804;8.764;2023-08-08T11:29:00;17.50;60.50
25953;DHT22;13750;50.804;8.764;2023-08-08T11:31:26;17.50;60.20
25953;DHT22;13750;50.804;8.764;2023-08-08T11:33:54;17.40;60.30
25953;DHT22;13750;50.804;8.764;2023-08-08T11:36:20;17.40;60.50
25953;DHT22;13750;50.804;8.764;2023-08-08T11:38:48;17.40;60.60
25953;DHT22;13750;50.804;8.764;2023-08-08T11:41:15;17.40;60.50
25953;DHT22;13750;50.804;8.764;2023-08-08T11:43:41;17.40;60.80
25953;DHT22;13750;50.804;8.764;2023-08-08T11:46:14;17.40;61.10
25953;DHT22;13750;50.804;8.764;2023-08-08T11:48:40;17.50;61.20
25953;DHT22;13750;50.804;8.764;2023-08-08T11:51:07;17.50;61.30
25953;DHT22;13750;50.804;8.764;2023-08-08T11:53:36;17.60;61.20
25953;DHT22;13750;50.804;8.764;2023-08-08T11:56:02;17.60;61.10
25953;DHT22;13750;50.804;8.764;2023-08-08T11:58:32;17.60;61.10
25953;DHT22;13750;50.804;8.764;2023-08-08T12:00:57;17.60;61.00
25953;DHT22;13750;50.804;8.764;2023-08-08T12:03:25;17.50;61.00
25953;DHT22;13750;50.804;8.764;2023-08-08T12:05:51;17.50;61.00
25953;DHT22;13750;50.804;8.764;2023-08-08T12:08:21;17.40;61.20
25953;DHT22;13750;50.804;8.764;2023-08-08T12:10:49;17.40;61.30
25953;DHT22;13750;50.804;8.764;2023-08-08T12:13:21;17.40;61.50
25953;DHT22;13750;50.804;8.764;2023-08-08T12:15:47;17.40;61.60
25953;DHT22;13750;50.804;8.764;2023-08-08T12:18:16;17.40;61.50
25953;DHT22;13750;50.804;8.764;2023-08-08T12:20:43;17.40;61.40
25953;DHT22;13750;50.804;8.764;2023-08-08T12:23:08;17.50;60.90
25953;DHT22;13750;50.804;8.764;2023-08-08T12:25:34;17.50;60.80
25953;DHT22;13750;50.804;8.764;2023-08-08T12:27:59;17.50;60.70
25953;DHT22;13750;50.804;8.764;2023-08-08T12:30:25;17.60;60.50
25953;DHT22;13750;50.804;8.764;2023-08-08T12:32:50;17.60;60.60
25953;DHT22;13750;50.804;8.764;2023-08-08T12:35:16;17.60;59.90
25953;DHT22;13750;50.804;8.764;2023-08-08T12:37:42;17.70;59.80
25953;DHT22;13750;50.804;8.764;2023-08-08T12:40:08;17.70;59.40
25953;DHT22;13750;50.804;8.764;2023-08-08T12:42:33;17.70;59.70
25953;DHT22;13750;50.804;8.764;2023-08-08T12:44:59;17.70;59.90
25953;DHT22;13750;50.804;8.764;2023-08-08T12:47:24;17.70;60.10
25953;DHT22;13750;50.804;8.764;2023-08-08T12:49:50;17.70;60.10
25953;DHT22;13750;50.804;8.764;2023-08-08T12:52:15;17.70;59.90
25953;DHT22;13750;50.804;8.764;2023-08-08T12:54:41;17.70;59.80
25953;DHT22;13750;50.804;8.764;2023-08-08T12:57:07;17.70;59.60
25953;DHT22;13750;50.804;8.764;2023-08-08T12:59:32;17.70;59.00
25953;DHT22;13750;50.804;8.764;2023-08-08T13:01:58;17.70;58.60
25953;DHT22;13750;50.804;8.764;2023-08-08T13:04:23;17.70;58.20
25953;DHT22;13750;50.804;8.764;2023-08-08T13:06:49;17.60;58.00
25953;DHT22;13750;50.804;8.764;2023-08-08T13:09:14;17.60;57.80
25953;DHT22;13750;50.804;8.764;2023-08-08T13:11:41;17.70;57.70
25953;DHT22;13750;50.804;8.764;2023-08-08T13:14:09;17.70;57.50
25953;DHT22;13750;50.804;8.764;2023-08-08T13:16:34;17.80;57.40
25953;DHT22;13750;50.804;8.764;2023-08-08T13:19:02;17.80;57.50
25953;DHT22;13750;50.804;8.764;2023-08-08T13:21:30;17.90;57.50
25953;DHT22;13750;50.804;8.764;2023-08-08T13:23:56;18.00;57.40
25953;DHT22;13750;50.804;8.764;2023-08-08T13:26:24;18.00;57.20
25953;DHT22;13750;50.804;8.764;2023-08-08T13:28:50;18.00;57.10
25953;DHT22;13750;50.804;8.764;2023-08-08T13:31:16;18.00;57.20
25953;DHT22;13750;50.804;8.764;2023-08-08T13:33:41;18.00;56.80
25953;DHT22;13750;50.804;8.764;2023-08-08T13:36:07;18.10;56.50
25953;DHT22;13750;50.804;8.764;2023-08-08T13:38:33;18.00;56.40
25953;DHT22;13750;50.804;8.764;2023-08-08T13:40:58;18.00;56.50
25953;DHT22;13750;50.804;8.764;2023-08-08T13:43:25;18.00;56.80
25953;DHT22;13750;50.804;8.764;2023-08-08T13:45:51;18.00;57.10
25953;DHT22;13750;50.804;8.764;2023-08-08T13:48:16;18.00;57.30
25953;DHT22;13750;50.804;8.764;2023-08-08T13:50:42;17.90;57.30
25953;DHT22;13750;50.804;8.764;2023-08-08T13:53:07;17.90;57.20
25953;DHT22;13750;50.804;8.764;2023-08-08T13:55:34;17.90;57.50
25953;DHT22;13750;50.804;8.764;2023-08-08T13:58:04;17.90;57.70
25953;DHT22;13750;50.804;8.764;2023-08-08T14:00:30;17.90;58.00
25953;DHT22;13750;50.804;8.764;2023-08-08T14:02:57;17.90;58.10
25953;DHT22;13750;50.804;8.764;2023-08-08T14:05:23;17.90;57.90
25953;DHT22;13750;50.804;8.764;2023-08-08T14:07:48;17.80;57.80
25953;DHT22;13750;50.804;8.764;2023-08-08T14:10:14;17.90;58.20
25953;DHT22;13750;50.804;8.764;2023-08-08T14:12:40;17.80;58.50
25953;DHT22;13750;50.804;8.764;2023-08-08T14:15:06;17.80;58.60
25953;DHT22;13750;50.804;8.764;2023-08-08T14:17:32;17.70;58.70
25953;DHT22;13750;50.804;8.764;2023-08-08T14:19:58;17.80;58.80
25953;DHT22;13750;50.804;8.764;2023-08-08T14:22:23;17.70;58.90
25953;DHT22;13750;50.804;8.764;2023-08-08T14:24:49;17.70;59.00
25953;DHT22;13750;50.804;8.764;2023-08-08T14:27:14;17.70;58.90
25953;DHT22;13750;50.804;8.764;2023-08-08T14:29:40;17.70;58.80
25953;DHT22;13750;50.804;8.764;2023-08-08T14:32:05;17.70;58.70
25953;DHT22;13750;50.804;8.764;2023-08-08T14:34:34;17.60;58.50
25953;DHT22;13750;50.804;8.764;2023-08-08T14:37:02;17.60;58.70
25953;DHT22;13750;50.804;8.764;2023-08-08T14:39:28;17.60;58.70
25953;DHT22;13750;50.804;8.764;2023-08-08T14:41:54;17.60;58.90
25953;DHT22;13750;50.804;8.764;2023-08-08T14:44:20;17.60;59.10
25953;DHT22;13750;50.804;8.764;2023-08-08T14:46:45;17.60;59.30
25953;DHT22;13750;50.804;8.764;2023-08-08T14:49:11;17.60;59.50
25953;DHT22;13750;50.804;8.764;2023-08-08T14:51:37;17.60;59.70
25953;DHT22;13750;50.804;8.764;2023-08-08T14:54:03;17.60;59.80
25953;DHT22;13750;50.804;8.764;2023-08-08T14:56:28;17.60;59.90
25953;DHT22;13750;50.804;8.764;2023-08-08T14:58:54;17.60;60.00
25953;DHT22;13750;50.804;8.764;2023-08-08T15:01:19;17.60;60.20
25953;DHT22;13750;50.804;8.764;2023-08-08T15:03:45;17.60;59.90
25953;DHT22;13750;50.804;8.764;2023-08-08T15:06:10;17.60;59.90
25953;DHT22;13750;50.804;8.764;2023-08-08T15:08:36;17.60;60.00
25953;DHT22;13750;50.804;8.764;2023-08-08T15:11:02;17.60;60.10
25953;DHT22;13750;50.804;8.764;2023-08-08T15:13:27;17.60;60.30
25953;DHT22;13750;50.804;8.764;2023-08-08T15:15:53;17.50;60.30
25953;DHT22;13750;50.804;8.764;2023-08-08T15:18:19;17.60;60.30
25953;DHT22;13750;50.804;8.764;2023-08-08T15:20:44;17.60;60.40
25953;DHT22;13750;50.804;8.764;2023-08-08T15:23:10;17.60;60.50
25953;DHT22;13750;50.804;8.764;2023-08-08T15:25:36;17.60;60.40
25953;DHT22;13750;50.804;8.764;2023-08-08T15:28:02;17.70;60.40